Details for Ryanair at EGGD




Go Back


Latest METAR
Local Time

EGGD 252150Z AUTO 05004KT 4000 BR BKN017 13/13 Q1019

25/05/2018, 23:23:50

Description
Results
Ryanair Logo
Number of Pilots based at EGGD
2 Pilots Based here
Number of Ryanair Flights Departed from EGGD
10 Flights Departed
Number of Ryanair Flights Arrived at EGGD
12 Flights Arrived
Number of Ryanair Schedules Departing from EGGD
64 Schedules
Number of Ryanair Schedules Arriving at EGGD
65 Schedules
Number of Ryanair Schedules Departing from EGGD availible today
19 Schedules Today
Number of Ryanair Schedules Arriving at EGGD availible today
19 Schedules Today
Average Landing Rate at EGGD
-228 fpm
Ryanair Average Landing Rate at EGGD
-240 fpm
Total Fuel Purchased at EGGD by Ryanair
39,325.59 kgs / 86,697.20 lbs

Pilots Based at EGGD


Pilot ID
Pilot Name
Pilot Rank
No. of Flights
No. of Flying Hours
Mark Callison
828
2376.33
Justin Fryer
1
2.32
Content